sensor_id;sensor_type;location;lat;lon;timestamp;P1;durP1;ratioP1;P2;durP2;ratioP2
15194;SDS011;7698;42.478;23.756;2023-02-28T00:00:38;14.20;;;12.82;;
15194;SDS011;7698;42.478;23.756;2023-02-28T00:03:05;11.88;;;10.70;;
15194;SDS011;7698;42.478;23.756;2023-02-28T00:05:33;10.60;;;9.57;;
15194;SDS011;7698;42.478;23.756;2023-02-28T00:08:00;10.07;;;9.07;;
15194;SDS011;7698;42.478;23.756;2023-02-28T00:10:28;9.75;;;8.75;;
15194;SDS011;7698;42.478;23.756;2023-02-28T00:12:55;11.43;;;10.32;;
15194;SDS011;7698;42.478;23.756;2023-02-28T00:15:23;12.68;;;11.38;;
15194;SDS011;7698;42.478;23.756;2023-02-28T00:17:49;10.82;;;9.70;;
15194;SDS011;7698;42.478;23.756;2023-02-28T00:20:16;15.23;;;13.65;;
15194;SDS011;7698;42.478;23.756;2023-02-28T00:22:44;9.50;;;7.90;;
15194;SDS011;7698;42.478;23.756;2023-02-28T00:25:12;15.27;;;12.80;;
15194;SDS011;7698;42.478;23.756;2023-02-28T00:27:39;18.05;;;15.77;;
15194;SDS011;7698;42.478;23.756;2023-02-28T00:30:06;20.48;;;17.90;;
15194;SDS011;7698;42.478;23.756;2023-02-28T00:32:33;17.42;;;13.90;;
15194;SDS011;7698;42.478;23.756;2023-02-28T00:34:59;17.40;;;15.05;;
15194;SDS011;7698;42.478;23.756;2023-02-28T00:37:26;16.85;;;13.63;;
15194;SDS011;7698;42.478;23.756;2023-02-28T00:39:54;17.02;;;15.10;;
15194;SDS011;7698;42.478;23.756;2023-02-28T00:42:20;21.58;;;17.75;;
15194;SDS011;7698;42.478;23.756;2023-02-28T00:44:47;17.63;;;15.70;;
15194;SDS011;7698;42.478;23.756;2023-02-28T00:47:14;15.63;;;13.98;;
15194;SDS011;7698;42.478;23.756;2023-02-28T00:49:41;18.35;;;15.73;;
15194;SDS011;7698;42.478;23.756;2023-02-28T00:52:07;18.02;;;15.85;;
15194;SDS011;7698;42.478;23.756;2023-02-28T00:54:34;17.40;;;14.73;;
15194;SDS011;7698;42.478;23.756;2023-02-28T00:57:02;22.33;;;18.08;;
15194;SDS011;7698;42.478;23.756;2023-02-28T00:59:28;16.42;;;14.68;;
15194;SDS011;7698;42.478;23.756;2023-02-28T01:01:55;15.57;;;13.05;;
15194;SDS011;7698;42.478;23.756;2023-02-28T01:04:21;15.15;;;11.38;;
15194;SDS011;7698;42.478;23.756;2023-02-28T01:06:48;20.17;;;14.95;;
15194;SDS011;7698;42.478;23.756;2023-02-28T01:09:14;18.50;;;16.17;;
15194;SDS011;7698;42.478;23.756;2023-02-28T01:11:41;17.35;;;15.55;;
15194;SDS011;7698;42.478;23.756;2023-02-28T01:14:11;17.10;;;15.23;;
15194;SDS011;7698;42.478;23.756;2023-02-28T01:16:38;15.32;;;13.27;;
15194;SDS011;7698;42.478;23.756;2023-02-28T01:19:04;17.63;;;13.90;;
15194;SDS011;7698;42.478;23.756;2023-02-28T01:21:31;17.60;;;14.93;;
15194;SDS011;7698;42.478;23.756;2023-02-28T01:23:57;12.60;;;11.20;;
15194;SDS011;7698;42.478;23.756;2023-02-28T01:26:24;17.13;;;14.13;;
15194;SDS011;7698;42.478;23.756;2023-02-28T01:28:51;13.35;;;10.85;;
15194;SDS011;7698;42.478;23.756;2023-02-28T01:31:19;12.40;;;10.98;;
15194;SDS011;7698;42.478;23.756;2023-02-28T01:33:46;14.60;;;11.20;;
15194;SDS011;7698;42.478;23.756;2023-02-28T01:36:13;13.07;;;11.68;;
15194;SDS011;7698;42.478;23.756;2023-02-28T01:38:40;11.77;;;10.57;;
15194;SDS011;7698;42.478;23.756;2023-02-28T01:41:07;11.00;;;9.80;;
15194;SDS011;7698;42.478;23.756;2023-02-28T01:43:55;11.57;;;10.10;;
15194;SDS011;7698;42.478;23.756;2023-02-28T01:46:23;12.45;;;11.05;;
15194;SDS011;7698;42.478;23.756;2023-02-28T01:48:51;11.35;;;9.52;;
15194;SDS011;7698;42.478;23.756;2023-02-28T01:51:18;10.50;;;9.07;;
15194;SDS011;7698;42.478;23.756;2023-02-28T01:53:47;10.38;;;9.27;;
15194;SDS011;7698;42.478;23.756;2023-02-28T01:56:16;12.50;;;9.32;;
15194;SDS011;7698;42.478;23.756;2023-02-28T01:58:45;15.07;;;13.32;;
15194;SDS011;7698;42.478;23.756;2023-02-28T02:01:12;17.20;;;13.95;;
15194;SDS011;7698;42.478;23.756;2023-02-28T02:03:48;26.00;;;19.33;;
15194;SDS011;7698;42.478;23.756;2023-02-28T02:06:20;31.77;;;21.63;;
15194;SDS011;7698;42.478;23.756;2023-02-28T02:08:47;38.20;;;24.05;;
15194;SDS011;7698;42.478;23.756;2023-02-28T02:11:13;19.88;;;14.00;;
15194;SDS011;7698;42.478;23.756;2023-02-28T02:13:54;23.15;;;15.00;;
15194;SDS011;7698;42.478;23.756;2023-02-28T02:16:26;22.30;;;15.35;;
15194;SDS011;7698;42.478;23.756;2023-02-28T02:18:59;21.23;;;14.65;;
15194;SDS011;7698;42.478;23.756;2023-02-28T02:27:09;13.18;;;9.65;;
15194;SDS011;7698;42.478;23.756;2023-02-28T02:29:42;21.67;;;16.30;;
15194;SDS011;7698;42.478;23.756;2023-02-28T02:35:11;11.98;;;10.18;;
15194;SDS011;7698;42.478;23.756;2023-02-28T02:37:40;13.95;;;10.93;;
15194;SDS011;7698;42.478;23.756;2023-02-28T02:40:10;16.77;;;12.70;;
15194;SDS011;7698;42.478;23.756;2023-02-28T02:42:41;12.95;;;9.63;;
15194;SDS011;7698;42.478;23.756;2023-02-28T02:45:11;11.32;;;9.65;;
15194;SDS011;7698;42.478;23.756;2023-02-28T02:47:39;15.52;;;12.35;;
15194;SDS011;7698;42.478;23.756;2023-02-28T02:50:08;14.40;;;12.38;;
15194;SDS011;7698;42.478;23.756;2023-02-28T02:52:39;14.15;;;12.38;;
15194;SDS011;7698;42.478;23.756;2023-02-28T02:55:07;13.15;;;11.05;;
15194;SDS011;7698;42.478;23.756;2023-02-28T02:57:36;13.27;;;10.93;;
15194;SDS011;7698;42.478;23.756;2023-02-28T03:00:05;13.60;;;10.88;;
15194;SDS011;7698;42.478;23.756;2023-02-28T03:02:34;12.95;;;11.32;;
15194;SDS011;7698;42.478;23.756;2023-02-28T03:05:02;17.48;;;15.38;;
15194;SDS011;7698;42.478;23.756;2023-02-28T03:07:30;17.85;;;15.70;;
15194;SDS011;7698;42.478;23.756;2023-02-28T03:09:58;15.70;;;13.98;;
15194;SDS011;7698;42.478;23.756;2023-02-28T03:12:27;24.42;;;21.75;;
15194;SDS011;7698;42.478;23.756;2023-02-28T03:14:56;22.27;;;19.45;;
15194;SDS011;7698;42.478;23.756;2023-02-28T03:17:37;16.73;;;14.90;;
15194;SDS011;7698;42.478;23.756;2023-02-28T03:20:07;19.58;;;14.60;;
15194;SDS011;7698;42.478;23.756;2023-02-28T03:22:50;23.48;;;20.02;;
15194;SDS011;7698;42.478;23.756;2023-02-28T03:25:21;21.35;;;18.15;;
15194;SDS011;7698;42.478;23.756;2023-02-28T03:27:53;17.25;;;13.45;;
15194;SDS011;7698;42.478;23.756;2023-02-28T03:30:22;23.02;;;19.98;;
15194;SDS011;7698;42.478;23.756;2023-02-28T03:32:52;21.05;;;18.85;;
15194;SDS011;7698;42.478;23.756;2023-02-28T03:35:20;23.27;;;19.45;;
15194;SDS011;7698;42.478;23.756;2023-02-28T03:37:49;22.85;;;20.38;;
15194;SDS011;7698;42.478;23.756;2023-02-28T03:40:17;20.73;;;18.52;;
15194;SDS011;7698;42.478;23.756;2023-02-28T03:42:48;15.48;;;13.82;;
15194;SDS011;7698;42.478;23.756;2023-02-28T03:45:16;21.75;;;19.02;;
15194;SDS011;7698;42.478;23.756;2023-02-28T03:47:44;13.48;;;12.07;;
15194;SDS011;7698;42.478;23.756;2023-02-28T03:50:13;21.67;;;17.48;;
15194;SDS011;7698;42.478;23.756;2023-02-28T03:52:42;23.08;;;18.30;;
15194;SDS011;7698;42.478;23.756;2023-02-28T03:55:10;18.02;;;15.07;;
15194;SDS011;7698;42.478;23.756;2023-02-28T03:57:38;16.27;;;13.05;;
15194;SDS011;7698;42.478;23.756;2023-02-28T04:00:08;18.85;;;15.75;;
15194;SDS011;7698;42.478;23.756;2023-02-28T04:02:37;21.45;;;18.90;;
15194;SDS011;7698;42.478;23.756;2023-02-28T04:05:04;22.20;;;19.88;;
15194;SDS011;7698;42.478;23.756;2023-02-28T04:07:31;22.70;;;20.33;;
15194;SDS011;7698;42.478;23.756;2023-02-28T04:09:58;27.85;;;24.55;;
15194;SDS011;7698;42.478;23.756;2023-02-28T04:12:24;21.05;;;19.02;;
15194;SDS011;7698;42.478;23.756;2023-02-28T04:14:51;22.60;;;19.90;;
15194;SDS011;7698;42.478;23.756;2023-02-28T04:17:19;16.92;;;15.15;;
15194;SDS011;7698;42.478;23.756;2023-02-28T04:19:45;17.80;;;15.45;;
15194;SDS011;7698;42.478;23.756;2023-02-28T04:22:12;18.48;;;16.55;;
15194;SDS011;7698;42.478;23.756;2023-02-28T04:24:38;18.40;;;16.42;;
15194;SDS011;7698;42.478;23.756;2023-02-28T04:27:06;18.30;;;15.93;;
15194;SDS011;7698;42.478;23.756;2023-02-28T04:29:33;18.35;;;14.43;;
15194;SDS011;7698;42.478;23.756;2023-02-28T04:31:59;20.15;;;16.48;;
15194;SDS011;7698;42.478;23.756;2023-02-28T04:34:28;16.02;;;12.43;;
15194;SDS011;7698;42.478;23.756;2023-02-28T04:36:55;19.40;;;15.98;;
15194;SDS011;7698;42.478;23.756;2023-02-28T04:39:22;13.25;;;11.73;;
15194;SDS011;7698;42.478;23.756;2023-02-28T04:41:49;19.52;;;17.15;;
15194;SDS011;7698;42.478;23.756;2023-02-28T04:44:16;15.30;;;13.63;;
15194;SDS011;7698;42.478;23.756;2023-02-28T04:46:43;16.45;;;13.73;;
15194;SDS011;7698;42.478;23.756;2023-02-28T04:49:09;26.38;;;22.05;;
15194;SDS011;7698;42.478;23.756;2023-02-28T04:51:38;24.48;;;21.42;;
15194;SDS011;7698;42.478;23.756;2023-02-28T04:54:05;26.40;;;21.35;;
15194;SDS011;7698;42.478;23.756;2023-02-28T04:56:31;31.55;;;25.88;;
15194;SDS011;7698;42.478;23.756;2023-02-28T04:58:58;31.98;;;26.95;;
15194;SDS011;7698;42.478;23.756;2023-02-28T05:01:25;32.80;;;26.90;;
15194;SDS011;7698;42.478;23.756;2023-02-28T05:03:53;31.02;;;24.98;;
15194;SDS011;7698;42.478;23.756;2023-02-28T05:06:20;25.75;;;22.70;;
15194;SDS011;7698;42.478;23.756;2023-02-28T05:08:50;29.52;;;24.48;;
15194;SDS011;7698;42.478;23.756;2023-02-28T05:11:17;29.23;;;22.25;;
15194;SDS011;7698;42.478;23.756;2023-02-28T05:13:44;24.27;;;21.33;;
15194;SDS011;7698;42.478;23.756;2023-02-28T05:16:11;22.13;;;19.33;;
15194;SDS011;7698;42.478;23.756;2023-02-28T05:18:37;25.00;;;21.10;;
15194;SDS011;7698;42.478;23.756;2023-02-28T05:21:04;21.05;;;18.02;;
15194;SDS011;7698;42.478;23.756;2023-02-28T05:23:30;21.58;;;19.08;;
15194;SDS011;7698;42.478;23.756;2023-02-28T05:25:58;23.45;;;19.65;;
15194;SDS011;7698;42.478;23.756;2023-02-28T05:28:25;19.98;;;17.83;;
15194;SDS011;7698;42.478;23.756;2023-02-28T05:30:51;26.92;;;24.02;;
15194;SDS011;7698;42.478;23.756;2023-02-28T05:33:18;23.40;;;20.55;;
15194;SDS011;7698;42.478;23.756;2023-02-28T05:35:44;29.45;;;23.88;;
15194;SDS011;7698;42.478;23.756;2023-02-28T05:38:11;26.67;;;23.35;;
15194;SDS011;7698;42.478;23.756;2023-02-28T05:40:38;21.17;;;18.88;;
15194;SDS011;7698;42.478;23.756;2023-02-28T05:43:05;26.42;;;22.63;;
15194;SDS011;7698;42.478;23.756;2023-02-28T05:45:34;23.52;;;20.77;;
15194;SDS011;7698;42.478;23.756;2023-02-28T05:48:00;22.23;;;19.17;;
15194;SDS011;7698;42.478;23.756;2023-02-28T05:50:27;29.08;;;23.08;;
15194;SDS011;7698;42.478;23.756;2023-02-28T05:52:53;32.15;;;26.73;;
15194;SDS011;7698;42.478;23.756;2023-02-28T05:55:20;30.35;;;26.45;;
15194;SDS011;7698;42.478;23.756;2023-02-28T05:57:46;33.83;;;27.50;;
15194;SDS011;7698;42.478;23.756;2023-02-28T06:00:14;27.50;;;24.00;;
15194;SDS011;7698;42.478;23.756;2023-02-28T06:02:42;28.00;;;23.50;;
15194;SDS011;7698;42.478;23.756;2023-02-28T06:05:10;33.15;;;24.95;;
15194;SDS011;7698;42.478;23.756;2023-02-28T06:07:38;32.22;;;24.63;;
15194;SDS011;7698;42.478;23.756;2023-02-28T06:10:05;33.90;;;23.38;;
15194;SDS011;7698;42.478;23.756;2023-02-28T06:12:32;31.33;;;23.90;;
15194;SDS011;7698;42.478;23.756;2023-02-28T06:14:58;37.17;;;25.38;;
15194;SDS011;7698;42.478;23.756;2023-02-28T06:17:26;29.13;;;22.90;;
15194;SDS011;7698;42.478;23.756;2023-02-28T06:19:53;34.42;;;25.17;;
15194;SDS011;7698;42.478;23.756;2023-02-28T06:22:19;30.23;;;23.02;;
15194;SDS011;7698;42.478;23.756;2023-02-28T06:24:46;30.15;;;25.33;;
15194;SDS011;7698;42.478;23.756;2023-02-28T06:27:12;37.50;;;26.25;;
15194;SDS011;7698;42.478;23.756;2023-02-28T06:29:39;34.17;;;26.25;;
15194;SDS011;7698;42.478;23.756;2023-02-28T06:32:05;34.60;;;27.17;;
15194;SDS011;7698;42.478;23.756;2023-02-28T06:34:33;34.42;;;25.13;;
15194;SDS011;7698;42.478;23.756;2023-02-28T06:37:00;35.55;;;26.80;;
15194;SDS011;7698;42.478;23.756;2023-02-28T06:39:27;43.55;;;31.27;;
15194;SDS011;7698;42.478;23.756;2023-02-28T06:41:54;45.95;;;30.95;;
15194;SDS011;7698;42.478;23.756;2023-02-28T06:44:21;41.95;;;29.75;;
15194;SDS011;7698;42.478;23.756;2023-02-28T06:46:47;43.72;;;28.48;;
15194;SDS011;7698;42.478;23.756;2023-02-28T06:49:14;39.35;;;27.95;;
15194;SDS011;7698;42.478;23.756;2023-02-28T06:51:43;43.80;;;30.13;;
15194;SDS011;7698;42.478;23.756;2023-02-28T06:54:11;42.17;;;29.83;;
15194;SDS011;7698;42.478;23.756;2023-02-28T06:56:38;49.25;;;30.88;;
15194;SDS011;7698;42.478;23.756;2023-02-28T06:59:04;44.25;;;29.70;;
15194;SDS011;7698;42.478;23.756;2023-02-28T07:01:31;39.00;;;28.00;;
15194;SDS011;7698;42.478;23.756;2023-02-28T07:03:57;48.58;;;29.92;;
15194;SDS011;7698;42.478;23.756;2023-02-28T07:06:25;45.80;;;29.45;;
15194;SDS011;7698;42.478;23.756;2023-02-28T07:08:53;47.53;;;30.77;;
15194;SDS011;7698;42.478;23.756;2023-02-28T07:11:20;38.88;;;28.20;;
15194;SDS011;7698;42.478;23.756;2023-02-28T07:13:47;45.63;;;29.63;;
15194;SDS011;7698;42.478;23.756;2023-02-28T07:16:14;47.35;;;28.45;;
15194;SDS011;7698;42.478;23.756;2023-02-28T07:18:40;37.25;;;27.05;;
15194;SDS011;7698;42.478;23.756;2023-02-28T07:21:08;41.97;;;28.08;;
15194;SDS011;7698;42.478;23.756;2023-02-28T07:23:35;41.92;;;26.42;;
15194;SDS011;7698;42.478;23.756;2023-02-28T07:26:04;42.95;;;30.00;;
15194;SDS011;7698;42.478;23.756;2023-02-28T07:28:31;40.40;;;27.23;;
15194;SDS011;7698;42.478;23.756;2023-02-28T07:31:02;43.35;;;27.77;;
15194;SDS011;7698;42.478;23.756;2023-02-28T07:33:29;42.92;;;29.80;;
15194;SDS011;7698;42.478;23.756;2023-02-28T07:35:59;43.50;;;29.60;;
15194;SDS011;7698;42.478;23.756;2023-02-28T07:38:26;40.65;;;29.70;;
15194;SDS011;7698;42.478;23.756;2023-02-28T07:40:52;43.17;;;26.80;;
15194;SDS011;7698;42.478;23.756;2023-02-28T07:43:20;43.22;;;27.45;;
15194;SDS011;7698;42.478;23.756;2023-02-28T07:45:47;40.85;;;26.90;;
15194;SDS011;7698;42.478;23.756;2023-02-28T07:48:13;41.50;;;25.45;;
15194;SDS011;7698;42.478;23.756;2023-02-28T07:50:40;44.20;;;27.67;;
15194;SDS011;7698;42.478;23.756;2023-02-28T07:53:06;39.38;;;25.67;;
15194;SDS011;7698;42.478;23.756;2023-02-28T07:55:33;39.53;;;23.42;;
15194;SDS011;7698;42.478;23.756;2023-02-28T07:58:00;34.33;;;24.55;;
15194;SDS011;7698;42.478;23.756;2023-02-28T08:00:28;41.42;;;26.13;;
15194;SDS011;7698;42.478;23.756;2023-02-28T08:02:56;39.58;;;23.20;;
15194;SDS011;7698;42.478;23.756;2023-02-28T08:05:23;34.47;;;23.55;;
15194;SDS011;7698;42.478;23.756;2023-02-28T08:07:49;28.80;;;20.38;;
15194;SDS011;7698;42.478;23.756;2023-02-28T08:10:16;34.15;;;23.67;;
15194;SDS011;7698;42.478;23.756;2023-02-28T08:12:43;33.92;;;21.30;;
15194;SDS011;7698;42.478;23.756;2023-02-28T08:15:09;29.45;;;21.10;;
15194;SDS011;7698;42.478;23.756;2023-02-28T08:17:37;29.83;;;21.25;;
15194;SDS011;7698;42.478;23.756;2023-02-28T08:20:05;29.95;;;19.98;;
15194;SDS011;7698;42.478;23.756;2023-02-28T08:22:31;37.35;;;21.80;;
15194;SDS011;7698;42.478;23.756;2023-02-28T08:24:58;26.17;;;19.92;;
15194;SDS011;7698;42.478;23.756;2023-02-28T08:27:24;28.10;;;20.48;;
15194;SDS011;7698;42.478;23.756;2023-02-28T08:29:51;24.58;;;17.95;;
15194;SDS011;7698;42.478;23.756;2023-02-28T08:32:17;24.85;;;19.23;;
15194;SDS011;7698;42.478;23.756;2023-02-28T08:34:45;25.88;;;18.75;;
15194;SDS011;7698;42.478;23.756;2023-02-28T08:37:12;23.90;;;18.48;;
15194;SDS011;7698;42.478;23.756;2023-02-28T08:39:38;27.15;;;18.20;;
15194;SDS011;7698;42.478;23.756;2023-02-28T08:42:05;23.42;;;16.42;;
15194;SDS011;7698;42.478;23.756;2023-02-28T08:44:32;20.77;;;15.88;;
15194;SDS011;7698;42.478;23.756;2023-02-28T08:46:58;22.40;;;17.30;;
15194;SDS011;7698;42.478;23.756;2023-02-28T08:49:25;23.23;;;15.57;;
15194;SDS011;7698;42.478;23.756;2023-02-28T08:51:53;22.92;;;16.30;;
15194;SDS011;7698;42.478;23.756;2023-02-28T08:54:20;21.88;;;16.65;;
15194;SDS011;7698;42.478;23.756;2023-02-28T08:56:48;22.77;;;16.75;;
15194;SDS011;7698;42.478;23.756;2023-02-28T08:59:14;20.98;;;16.05;;
15194;SDS011;7698;42.478;23.756;2023-02-28T09:01:41;18.73;;;14.77;;
15194;SDS011;7698;42.478;23.756;2023-02-28T09:04:08;19.40;;;15.07;;
15194;SDS011;7698;42.478;23.756;2023-02-28T09:06:36;14.80;;;12.70;;
15194;SDS011;7698;42.478;23.756;2023-02-28T09:09:04;18.25;;;14.13;;
15194;SDS011;7698;42.478;23.756;2023-02-28T09:11:32;14.60;;;13.10;;
15194;SDS011;7698;42.478;23.756;2023-02-28T09:13:59;16.13;;;13.55;;
15194;SDS011;7698;42.478;23.756;2023-02-28T09:16:28;13.85;;;12.35;;
15194;SDS011;7698;42.478;23.756;2023-02-28T09:18:55;15.40;;;12.88;;
15194;SDS011;7698;42.478;23.756;2023-02-28T09:21:21;18.40;;;13.80;;
15194;SDS011;7698;42.478;23.756;2023-02-28T09:23:48;16.80;;;14.75;;
15194;SDS011;7698;42.478;23.756;2023-02-28T09:26:17;19.90;;;14.65;;
15194;SDS011;7698;42.478;23.756;2023-02-28T09:28:44;19.85;;;15.40;;
15194;SDS011;7698;42.478;23.756;2023-02-28T09:31:11;24.23;;;19.02;;
15194;SDS011;7698;42.478;23.756;2023-02-28T09:33:38;22.23;;;17.35;;
15194;SDS011;7698;42.478;23.756;2023-02-28T09:36:05;23.70;;;20.05;;
15194;SDS011;7698;42.478;23.756;2023-02-28T09:38:32;27.40;;;20.58;;
15194;SDS011;7698;42.478;23.756;2023-02-28T09:40:59;27.77;;;20.60;;
15194;SDS011;7698;42.478;23.756;2023-02-28T09:43:28;27.45;;;20.48;;
15194;SDS011;7698;42.478;23.756;2023-02-28T09:45:56;30.20;;;22.33;;
15194;SDS011;7698;42.478;23.756;2023-02-28T09:48:27;28.35;;;20.52;;
15194;SDS011;7698;42.478;23.756;2023-02-28T09:50:55;28.85;;;21.50;;
15194;SDS011;7698;42.478;23.756;2023-02-28T09:53:26;30.73;;;21.00;;
15194;SDS011;7698;42.478;23.756;2023-02-28T09:55:57;30.85;;;22.98;;
15194;SDS011;7698;42.478;23.756;2023-02-28T09:58:26;31.95;;;24.38;;
15194;SDS011;7698;42.478;23.756;2023-02-28T10:00:58;33.85;;;24.85;;
15194;SDS011;7698;42.478;23.756;2023-02-28T10:03:27;30.60;;;22.15;;
15194;SDS011;7698;42.478;23.756;2023-02-28T10:05:56;39.50;;;26.42;;
15194;SDS011;7698;42.478;23.756;2023-02-28T10:08:26;31.60;;;24.80;;
15194;SDS011;7698;42.478;23.756;2023-02-28T10:10:54;33.95;;;24.98;;
15194;SDS011;7698;42.478;23.756;2023-02-28T10:13:23;34.50;;;24.08;;
15194;SDS011;7698;42.478;23.756;2023-02-28T10:15:51;31.60;;;23.95;;
15194;SDS011;7698;42.478;23.756;2023-02-28T10:18:21;32.53;;;22.50;;
15194;SDS011;7698;42.478;23.756;2023-02-28T10:20:50;33.92;;;25.10;;
15194;SDS011;7698;42.478;23.756;2023-02-28T10:23:19;31.85;;;22.33;;
15194;SDS011;7698;42.478;23.756;2023-02-28T10:25:48;33.08;;;22.65;;
15194;SDS011;7698;42.478;23.756;2023-02-28T10:28:16;32.85;;;23.15;;
15194;SDS011;7698;42.478;23.756;2023-02-28T10:30:45;31.75;;;23.77;;
15194;SDS011;7698;42.478;23.756;2023-02-28T10:33:16;29.05;;;22.40;;
15194;SDS011;7698;42.478;23.756;2023-02-28T10:35:45;26.55;;;19.92;;
15194;SDS011;7698;42.478;23.756;2023-02-28T10:38:15;28.27;;;21.60;;
15194;SDS011;7698;42.478;23.756;2023-02-28T10:40:42;32.65;;;23.60;;
15194;SDS011;7698;42.478;23.756;2023-02-28T10:43:17;26.92;;;21.15;;
15194;SDS011;7698;42.478;23.756;2023-02-28T10:45:51;28.88;;;22.70;;
15194;SDS011;7698;42.478;23.756;2023-02-28T10:48:33;29.30;;;23.13;;
15194;SDS011;7698;42.478;23.756;2023-02-28T10:51:01;24.75;;;20.23;;
15194;SDS011;7698;42.478;23.756;2023-02-28T10:53:33;26.13;;;20.05;;
15194;SDS011;7698;42.478;23.756;2023-02-28T10:56:01;27.08;;;21.80;;
15194;SDS011;7698;42.478;23.756;2023-02-28T10:58:28;28.95;;;22.58;;
15194;SDS011;7698;42.478;23.756;2023-02-28T11:00:55;27.50;;;20.92;;
15194;SDS011;7698;42.478;23.756;2023-02-28T11:03:28;30.38;;;22.60;;
15194;SDS011;7698;42.478;23.756;2023-02-28T11:05:55;31.88;;;24.35;;
15194;SDS011;7698;42.478;23.756;2023-02-28T11:08:23;29.52;;;22.33;;
15194;SDS011;7698;42.478;23.756;2023-02-28T11:10:53;28.92;;;22.92;;
15194;SDS011;7698;42.478;23.756;2023-02-28T11:13:21;26.20;;;21.63;;
15194;SDS011;7698;42.478;23.756;2023-02-28T11:15:51;30.23;;;22.23;;
15194;SDS011;7698;42.478;23.756;2023-02-28T11:18:20;27.83;;;21.75;;
15194;SDS011;7698;42.478;23.756;2023-02-28T11:20:47;30.02;;;22.65;;
15194;SDS011;7698;42.478;23.756;2023-02-28T11:23:15;24.98;;;19.60;;
15194;SDS011;7698;42.478;23.756;2023-02-28T11:25:46;31.30;;;20.77;;
15194;SDS011;7698;42.478;23.756;2023-02-28T11:28:23;26.30;;;19.73;;
15194;SDS011;7698;42.478;23.756;2023-02-28T11:30:59;28.38;;;21.13;;
15194;SDS011;7698;42.478;23.756;2023-02-28T11:33:27;33.13;;;23.70;;
15194;SDS011;7698;42.478;23.756;2023-02-28T11:35:55;27.25;;;20.55;;
15194;SDS011;7698;42.478;23.756;2023-02-28T11:38:23;28.95;;;21.35;;
15194;SDS011;7698;42.478;23.756;2023-02-28T11:40:54;36.58;;;23.38;;
15194;SDS011;7698;42.478;23.756;2023-02-28T11:43:30;34.40;;;21.77;;
15194;SDS011;7698;42.478;23.756;2023-02-28T11:46:05;31.88;;;24.77;;
15194;SDS011;7698;42.478;23.756;2023-02-28T11:48:37;36.13;;;24.33;;
15194;SDS011;7698;42.478;23.756;2023-02-28T11:51:08;39.35;;;25.17;;
15194;SDS011;7698;42.478;23.756;2023-02-28T11:53:49;37.03;;;26.80;;
15194;SDS011;7698;42.478;23.756;2023-02-28T11:56:21;33.95;;;24.13;;
15194;SDS011;7698;42.478;23.756;2023-02-28T11:58:52;31.63;;;25.70;;
15194;SDS011;7698;42.478;23.756;2023-02-28T12:01:26;39.70;;;26.27;;
15194;SDS011;7698;42.478;23.756;2023-02-28T12:03:58;37.47;;;26.17;;
15194;SDS011;7698;42.478;23.756;2023-02-28T12:06:28;33.90;;;26.55;;
15194;SDS011;7698;42.478;23.756;2023-02-28T12:09:00;40.75;;;31.42;;
15194;SDS011;7698;42.478;23.756;2023-02-28T12:11:35;41.15;;;31.05;;
15194;SDS011;7698;42.478;23.756;2023-02-28T12:14:16;39.85;;;28.52;;
15194;SDS011;7698;42.478;23.756;2023-02-28T12:16:47;39.55;;;28.35;;
15194;SDS011;7698;42.478;23.756;2023-02-28T12:19:17;41.25;;;31.23;;
15194;SDS011;7698;42.478;23.756;2023-02-28T12:21:49;39.83;;;28.77;;
15194;SDS011;7698;42.478;23.756;2023-02-28T12:24:26;28.25;;;22.15;;
15194;SDS011;7698;42.478;23.756;2023-02-28T12:26:55;31.77;;;22.38;;
15194;SDS011;7698;42.478;23.756;2023-02-28T12:29:24;33.65;;;23.00;;
15194;SDS011;7698;42.478;23.756;2023-02-28T12:31:53;27.15;;;20.23;;
15194;SDS011;7698;42.478;23.756;2023-02-28T12:34:22;29.83;;;20.67;;
15194;SDS011;7698;42.478;23.756;2023-02-28T12:36:49;30.20;;;20.88;;
15194;SDS011;7698;42.478;23.756;2023-02-28T12:39:18;27.70;;;18.67;;
15194;SDS011;7698;42.478;23.756;2023-02-28T12:41:48;24.90;;;18.65;;
15194;SDS011;7698;42.478;23.756;2023-02-28T12:44:19;23.73;;;18.15;;
15194;SDS011;7698;42.478;23.756;2023-02-28T12:46:47;25.75;;;19.33;;
15194;SDS011;7698;42.478;23.756;2023-02-28T12:49:15;21.15;;;17.08;;
15194;SDS011;7698;42.478;23.756;2023-02-28T12:51:44;28.63;;;21.35;;
15194;SDS011;7698;42.478;23.756;2023-02-28T12:54:12;44.60;;;35.78;;
15194;SDS011;7698;42.478;23.756;2023-02-28T12:56:43;78.97;;;57.50;;
15194;SDS011;7698;42.478;23.756;2023-02-28T12:59:12;81.55;;;59.03;;
15194;SDS011;7698;42.478;23.756;2023-02-28T13:04:33;43.35;;;33.03;;
15194;SDS011;7698;42.478;23.756;2023-02-28T13:07:16;25.13;;;20.30;;
15194;SDS011;7698;42.478;23.756;2023-02-28T13:09:51;103.47;;;81.97;;
15194;SDS011;7698;42.478;23.756;2023-02-28T13:12:18;23.90;;;19.27;;
15194;SDS011;7698;42.478;23.756;2023-02-28T13:14:45;129.55;;;113.40;;
15194;SDS011;7698;42.478;23.756;2023-02-28T13:17:12;47.72;;;38.25;;
15194;SDS011;7698;42.478;23.756;2023-02-28T13:19:45;21.80;;;18.90;;
15194;SDS011;7698;42.478;23.756;2023-02-28T13:22:17;26.95;;;22.88;;
15194;SDS011;7698;42.478;23.756;2023-02-28T13:24:45;24.15;;;19.10;;
15194;SDS011;7698;42.478;23.756;2023-02-28T13:29:56;22.23;;;17.48;;
15194;SDS011;7698;42.478;23.756;2023-02-28T13:40:55;21.02;;;17.48;;
15194;SDS011;7698;42.478;23.756;2023-02-28T13:43:24;19.58;;;16.10;;
15194;SDS011;7698;42.478;23.756;2023-02-28T13:46:11;22.33;;;18.08;;
15194;SDS011;7698;42.478;23.756;2023-02-28T13:48:38;23.83;;;18.77;;
15194;SDS011;7698;42.478;23.756;2023-02-28T13:53:53;21.80;;;16.67;;
15194;SDS011;7698;42.478;23.756;2023-02-28T13:56:33;22.70;;;18.17;;
15194;SDS011;7698;42.478;23.756;2023-02-28T13:59:02;21.83;;;18.02;;
15194;SDS011;7698;42.478;23.756;2023-02-28T14:01:36;25.55;;;19.83;;
15194;SDS011;7698;42.478;23.756;2023-02-28T14:06:49;24.90;;;20.95;;
15194;SDS011;7698;42.478;23.756;2023-02-28T14:09:18;23.83;;;18.50;;
15194;SDS011;7698;42.478;23.756;2023-02-28T14:11:46;27.08;;;22.50;;
15194;SDS011;7698;42.478;23.756;2023-02-28T14:16:54;24.17;;;19.02;;
15194;SDS011;7698;42.478;23.756;2023-02-28T14:19:23;23.33;;;19.38;;
15194;SDS011;7698;42.478;23.756;2023-02-28T14:21:55;22.15;;;18.70;;
15194;SDS011;7698;42.478;23.756;2023-02-28T14:24:42;20.88;;;17.88;;
15194;SDS011;7698;42.478;23.756;2023-02-28T14:27:22;22.15;;;18.08;;
15194;SDS011;7698;42.478;23.756;2023-02-28T14:30:14;22.55;;;18.25;;
15194;SDS011;7698;42.478;23.756;2023-02-28T14:32:44;21.77;;;17.55;;
15194;SDS011;7698;42.478;23.756;2023-02-28T14:35:18;23.00;;;17.40;;
15194;SDS011;7698;42.478;23.756;2023-02-28T14:37:46;20.42;;;16.38;;
15194;SDS011;7698;42.478;23.756;2023-02-28T14:40:14;17.75;;;14.63;;
15194;SDS011;7698;42.478;23.756;2023-02-28T14:42:45;20.48;;;17.10;;
15194;SDS011;7698;42.478;23.756;2023-02-28T14:45:17;18.67;;;16.23;;
15194;SDS011;7698;42.478;23.756;2023-02-28T14:47:43;23.70;;;18.85;;
15194;SDS011;7698;42.478;23.756;2023-02-28T14:50:17;23.00;;;18.45;;
15194;SDS011;7698;42.478;23.756;2023-02-28T14:52:44;20.52;;;17.80;;
15194;SDS011;7698;42.478;23.756;2023-02-28T14:55:12;23.08;;;18.45;;
15194;SDS011;7698;42.478;23.756;2023-02-28T14:57:41;21.25;;;18.33;;
15194;SDS011;7698;42.478;23.756;2023-02-28T15:00:13;21.77;;;17.52;;